Time,TemperatureF,DewpointF,PressureIn,WindDirection,WindDirectionDegrees,WindSpeedMPH,WindSpeedGustMPH,Humidity,HourlyPrecipIn,Conditions,Clouds,dailyrainin,SoftwareType,DateUTC
2013-09-14 00:00:00,51.0,47.0,29.59,North,355,1.0,4.0,86,0.00,,,0.00,Wunderground v.1.15,2013-09-14 04:00:00,
2013-09-14 00:10:00,50.8,47.1,29.59,NNW,329,1.0,1.0,87,0.00,,,0.00,Wunderground v.1.15,2013-09-14 04:10:00,
2013-09-14 00:20:00,50.3,46.9,29.59,NNW,333,2.0,4.0,88,0.00,,,0.00,Wunderground v.1.15,2013-09-14 04:20:00,
2013-09-14 00:30:00,50.0,46.6,29.59,North,355,4.0,5.0,88,0.00,,,0.00,Wunderground v.1.15,2013-09-14 04:30:00,
2013-09-14 00:40:00,49.9,46.5,29.59,NNW,333,4.0,4.0,88,0.00,,,0.00,Wunderground v.1.15,2013-09-14 04:40:00,
2013-09-14 00:50:00,49.7,46.3,29.58,NNW,346,4.0,6.0,88,0.00,,,0.00,Wunderground v.1.15,2013-09-14 04:50:00,
2013-09-14 01:00:00,49.6,45.9,29.58,North,5,4.0,7.0,87,0.00,,,0.00,Wunderground v.1.15,2013-09-14 05:00:00,
2013-09-14 01:10:00,49.6,45.6,29.59,NNW,337,5.0,9.0,86,0.00,,,0.00,Wunderground v.1.15,2013-09-14 05:10:00,
2013-09-14 01:20:00,49.4,45.4,29.59,NNW,336,5.0,5.0,86,0.00,,,0.00,Wunderground v.1.15,2013-09-14 05:20:00,
2013-09-14 01:30:00,49.4,45.1,29.59,NW,317,4.0,4.0,85,0.00,,,0.00,Wunderground v.1.15,2013-09-14 05:30:00,
2013-09-14 01:40:00,49.3,45.0,29.59,NW,325,6.0,9.0,85,0.00,,,0.00,Wunderground v.1.15,2013-09-14 05:40:00,
2013-09-14 01:50:00,49.0,45.0,29.59,NW,308,6.0,9.0,86,0.00,,,0.00,Wunderground v.1.15,2013-09-14 05:50:00,
2013-09-14 02:00:00,48.5,44.8,29.59,NW,306,6.0,6.0,87,0.00,,,0.00,Wunderground v.1.15,2013-09-14 06:00:00,
2013-09-14 02:09:00,48.2,44.8,29.59,NW,311,5.0,5.0,88,0.00,,,0.00,Wunderground v.1.15,2013-09-14 06:09:00,
2013-09-14 02:20:00,47.9,44.5,29.59,NW,311,5.0,5.0,88,0.00,,,0.00,Wunderground v.1.15,2013-09-14 06:20:00,
2013-09-14 02:29:00,47.7,44.3,29.59,NW,317,4.0,9.0,88,0.00,,,0.00,Wunderground v.1.15,2013-09-14 06:29:00,
2013-09-14 02:40:00,47.3,44.2,29.59,NW,325,4.0,4.0,89,0.00,,,0.00,Wunderground v.1.15,2013-09-14 06:40:00,
2013-09-14 02:49:00,46.9,44.1,29.59,NW,309,1.0,1.0,90,0.00,,,0.00,Wunderground v.1.15,2013-09-14 06:49:00,
2013-09-14 03:00:00,46.6,44.1,29.60,NW,321,0.0,9.0,91,0.00,,,0.00,Wunderground v.1.15,2013-09-14 07:00:00,
2013-09-14 03:10:00,46.4,43.9,29.60,NW,317,1.0,9.0,91,0.00,,,0.00,Wunderground v.1.15,2013-09-14 07:10:00,
2013-09-14 03:19:00,46.3,44.1,29.60,NW,319,0.0,9.0,92,0.00,,,0.00,Wunderground v.1.15,2013-09-14 07:19:00,
2013-09-14 03:30:00,46.0,43.8,29.60,NW,319,0.0,9.0,92,0.00,,,0.00,Wunderground v.1.15,2013-09-14 07:30:00,
2013-09-14 03:39:00,46.0,43.8,29.61,NW,321,1.0,1.0,92,0.00,,,0.00,Wunderground v.1.15,2013-09-14 07:39:00,
2013-09-14 03:50:00,45.8,43.6,29.60,NW,311,2.0,9.0,92,0.00,,,0.00,Wunderground v.1.15,2013-09-14 07:50:00,
2013-09-14 03:59:00,45.8,43.9,29.60,NW,316,5.0,5.0,93,0.00,,,0.00,Wunderground v.1.15,2013-09-14 07:59:00,
2013-09-14 04:10:00,45.6,43.7,29.61,NW,318,2.0,9.0,93,0.00,,,0.00,Wunderground v.1.15,2013-09-14 08:10:00,
2013-09-14 04:20:00,45.4,43.5,29.61,NNW,327,0.0,9.0,93,0.00,,,0.00,Wunderground v.1.15,2013-09-14 08:20:00,
2013-09-14 04:30:00,45.2,43.3,29.61,NNW,329,0.0,9.0,93,0.00,,,0.00,Wunderground v.1.15,2013-09-14 08:30:00,
2013-09-14 04:39:00,45.2,43.6,29.61,NNW,335,0.0,9.0,94,0.00,,,0.00,Wunderground v.1.15,2013-09-14 08:39:00,
2013-09-14 04:50:00,45.0,43.4,29.62,NNW,346,0.0,9.0,94,0.00,,,0.00,Wunderground v.1.15,2013-09-14 08:50:00,
2013-09-14 05:00:00,45.1,43.5,29.62,NNW,338,1.0,1.0,94,0.00,,,0.00,Wunderground v.1.15,2013-09-14 09:00:00,
2013-09-14 05:10:00,45.2,43.6,29.63,NW,325,1.0,1.0,94,0.00,,,0.00,Wunderground v.1.15,2013-09-14 09:10:00,
2013-09-14 05:19:00,45.1,43.5,29.63,NW,320,0.0,9.0,94,0.00,,,0.00,Wunderground v.1.15,2013-09-14 09:19:00,
2013-09-14 05:30:00,45.2,43.6,29.63,NNW,332,1.0,1.0,94,0.00,,,0.00,Wunderground v.1.15,2013-09-14 09:30:00,
2013-09-14 05:40:00,45.1,43.5,29.63,NW,321,0.0,9.0,94,0.00,,,0.00,Wunderground v.1.15,2013-09-14 09:40:00,
2013-09-14 05:50:00,45.0,43.4,29.64,NW,314,0.0,9.0,94,0.00,,,0.00,Wunderground v.1.15,2013-09-14 09:50:00,
2013-09-14 06:00:00,44.8,43.2,29.64,NW,314,0.0,9.0,94,0.00,,,0.00,Wunderground v.1.15,2013-09-14 10:00:00,
2013-09-14 06:10:00,44.8,43.2,29.65,NW,314,0.0,9.0,94,0.00,,,0.00,Wunderground v.1.15,2013-09-14 10:10:00,
2013-09-14 06:19:00,44.8,43.2,29.65,NW,314,0.0,9.0,94,0.00,,,0.00,Wunderground v.1.15,2013-09-14 10:19:00,
2013-09-14 06:30:00,44.8,43.2,29.65,NW,314,0.0,9.0,94,0.00,,,0.00,Wunderground v.1.15,2013-09-14 10:30:00,
2013-09-14 06:40:00,44.9,43.3,29.66,NW,314,0.0,9.0,94,0.00,,,0.00,Wunderground v.1.15,2013-09-14 10:40:00,
2013-09-14 06:50:00,44.7,43.1,29.66,NW,314,0.0,9.0,94,0.00,,,0.00,Wunderground v.1.15,2013-09-14 10:50:00,
2013-09-14 07:00:00,44.5,42.9,29.67,NW,314,0.0,9.0,94,0.00,,,0.00,Wunderground v.1.15,2013-09-14 11:00:00,
2013-09-14 07:10:00,44.5,42.9,29.67,NW,314,0.0,9.0,94,0.00,,,0.00,Wunderground v.1.15,2013-09-14 11:10:00,
2013-09-14 07:20:00,44.6,43.3,29.68,NW,314,0.0,9.0,95,0.00,,,0.00,Wunderground v.1.15,2013-09-14 11:20:00,
2013-09-14 07:30:00,44.9,43.6,29.68,NW,314,0.0,9.0,95,0.00,,,0.00,Wunderground v.1.15,2013-09-14 11:30:00,
2013-09-14 07:40:00,45.2,43.6,29.69,NW,314,0.0,9.0,94,0.00,,,0.00,Wunderground v.1.15,2013-09-14 11:40:00,
2013-09-14 07:50:00,45.6,44.0,29.69,NW,314,0.0,9.0,94,0.00,,,0.00,Wunderground v.1.15,2013-09-14 11:50:00,
2013-09-14 07:59:00,46.1,44.5,29.70,NW,314,0.0,9.0,94,0.00,,,0.00,Wunderground v.1.15,2013-09-14 11:59:00,
2013-09-14 08:10:00,46.5,44.6,29.70,NW,314,0.0,0.0,93,0.00,,,0.00,Wunderground v.1.15,2013-09-14 12:10:00,
2013-09-14 08:19:00,47.1,45.5,29.71,NW,314,0.0,0.0,94,0.00,,,0.00,Wunderground v.1.15,2013-09-14 12:19:00,
2013-09-14 08:30:00,47.9,46.0,29.72,NW,314,0.0,0.0,93,0.00,,,0.00,Wunderground v.1.15,2013-09-14 12:30:00,
2013-09-14 08:40:00,49.0,46.8,29.72,NW,314,1.0,5.0,92,0.00,,,0.00,Wunderground v.1.15,2013-09-14 12:40:00,
2013-09-14 08:50:00,50.3,47.8,29.72,NW,315,2.0,2.0,91,0.00,,,0.00,Wunderground v.1.15,2013-09-14 12:50:00,
2013-09-14 09:00:00,51.2,47.8,29.72,NW,319,2.0,2.0,88,0.00,,,0.00,Wunderground v.1.15,2013-09-14 13:00:00,
2013-09-14 09:10:00,51.5,47.8,29.72,NNW,348,1.0,1.0,87,0.00,,,0.00,Wunderground v.1.15,2013-09-14 13:10:00,
2013-09-14 09:19:00,52.2,48.1,29.72,NNW,327,2.0,4.0,86,0.00,,,0.00,Wunderground v.1.15,2013-09-14 13:19:00,
2013-09-14 09:30:00,52.6,48.5,29.73,North,5,3.0,3.0,86,0.00,,,0.00,Wunderground v.1.15,2013-09-14 13:30:00,
2013-09-14 09:40:00,52.9,47.6,29.73,NNE,27,4.0,7.0,82,0.00,,,0.00,Wunderground v.1.15,2013-09-14 13:40:00,
2013-09-14 09:49:00,53.1,47.7,29.74,NNE,24,5.0,6.0,82,0.00,,,0.00,Wunderground v.1.15,2013-09-14 13:49:00,
2013-09-14 10:00:00,54.1,48.7,29.74,NE,37,2.0,2.0,82,0.00,,,0.00,Wunderground v.1.15,2013-09-14 14:00:00,
2013-09-14 10:10:00,54.1,48.1,29.75,North,360,4.0,4.0,80,0.00,,,0.00,Wunderground v.1.15,2013-09-14 14:10:00,
2013-09-14 10:20:00,54.9,49.5,29.75,NE,36,3.0,5.0,82,0.00,,,0.00,Wunderground v.1.15,2013-09-14 14:20:00,
2013-09-14 10:29:00,55.6,49.5,29.75,NNW,347,2.0,2.0,80,0.00,,,0.00,Wunderground v.1.15,2013-09-14 14:29:00,
2013-09-14 10:40:00,56.6,49.5,29.75,North,360,1.0,1.0,77,0.00,,,0.00,Wunderground v.1.15,2013-09-14 14:40:00,
2013-09-14 10:49:00,56.7,48.5,29.75,NNW,346,3.0,3.0,74,0.00,,,0.00,Wunderground v.1.15,2013-09-14 14:49:00,
2013-09-14 11:00:00,56.4,47.1,29.75,NE,39,4.0,4.0,71,0.00,,,0.00,Wunderground v.1.15,2013-09-14 15:00:00,
2013-09-14 11:10:00,56.8,47.5,29.75,NE,37,2.0,5.0,71,0.00,,,0.00,Wunderground v.1.15,2013-09-14 15:10:00,
2013-09-14 11:19:00,57.5,48.2,29.75,NNW,342,2.0,2.0,71,0.00,,,0.00,Wunderground v.1.15,2013-09-14 15:19:00,
2013-09-14 11:29:00,58.3,48.6,29.75,NW,313,1.0,4.0,70,0.00,,,0.00,Wunderground v.1.15,2013-09-14 15:29:00,
2013-09-14 11:40:00,58.8,48.3,29.75,NW,311,2.0,2.0,68,0.00,,,0.00,Wunderground v.1.15,2013-09-14 15:40:00,
2013-09-14 11:49:00,58.9,48.0,29.75,West,279,2.0,2.0,67,0.00,,,0.00,Wunderground v.1.15,2013-09-14 15:49:00,
2013-09-14 12:00:00,59.5,49.7,29.75,SW,229,0.0,1.0,70,0.00,,,0.00,Wunderground v.1.15,2013-09-14 16:00:00,
2013-09-14 12:09:00,60.2,50.0,29.75,NW,318,0.0,1.0,69,0.00,,,0.00,Wunderground v.1.15,2013-09-14 16:09:00,
2013-09-14 12:20:00,60.4,50.2,29.75,NW,323,0.0,0.0,69,0.00,,,0.00,Wunderground v.1.15,2013-09-14 16:20:00,
2013-09-14 12:29:00,60.5,48.7,29.75,WNW,289,1.0,2.0,65,0.00,,,0.00,Wunderground v.1.15,2013-09-14 16:29:00,
2013-09-14 12:40:00,60.1,48.7,29.75,ENE,64,1.0,1.0,66,0.00,,,0.00,Wunderground v.1.15,2013-09-14 16:40:00,
2013-09-14 12:50:00,61.1,50.5,29.75,WSW,251,1.0,1.0,68,0.00,,,0.00,Wunderground v.1.15,2013-09-14 16:50:00,
2013-09-14 13:00:00,61.7,48.5,29.75,West,269,2.0,2.0,62,0.00,,,0.00,Wunderground v.1.15,2013-09-14 17:00:00,
2013-09-14 13:10:00,61.9,50.4,29.75,West,264,1.0,1.0,66,0.00,,,0.00,Wunderground v.1.15,2013-09-14 17:10:00,
2013-09-14 13:20:00,62.1,50.6,29.75,ENE,57,1.0,8.0,66,0.00,,,0.00,Wunderground v.1.15,2013-09-14 17:20:00,
2013-09-14 13:30:00,61.5,49.2,29.74,NNW,343,4.0,4.0,64,0.00,,,0.00,Wunderground v.1.15,2013-09-14 17:30:00,
2013-09-14 13:39:00,62.2,49.9,29.74,West,266,2.0,8.0,64,0.00,,,0.00,Wunderground v.1.15,2013-09-14 17:39:00,
2013-09-14 13:50:00,63.1,50.3,29.74,SSW,211,2.0,8.0,63,0.00,,,0.00,Wunderground v.1.15,2013-09-14 17:50:00,
2013-09-14 14:00:00,63.4,47.9,29.74,SSW,209,2.0,2.0,57,0.00,,,0.00,Wunderground v.1.15,2013-09-14 18:00:00,
2013-09-14 14:09:00,64.2,48.6,29.74,WSW,242,3.0,8.0,57,0.00,,,0.00,Wunderground v.1.15,2013-09-14 18:09:00,
2013-09-14 14:20:00,64.5,49.4,29.74,WSW,247,2.0,8.0,58,0.00,,,0.00,Wunderground v.1.15,2013-09-14 18:20:00,
2013-09-14 14:30:00,65.1,50.9,29.73,NW,313,1.0,8.0,60,0.00,,,0.00,Wunderground v.1.15,2013-09-14 18:30:00,
2013-09-14 14:40:00,64.9,47.9,29.74,WNW,288,2.0,2.0,54,0.00,,,0.00,Wunderground v.1.15,2013-09-14 18:40:00,
2013-09-14 14:50:00,64.8,48.2,29.73,West,281,1.0,8.0,55,0.00,,,0.00,Wunderground v.1.15,2013-09-14 18:50:00,
2013-09-14 15:00:00,65.4,51.1,29.73,SSW,203,3.0,8.0,60,0.00,,,0.00,Wunderground v.1.15,2013-09-14 19:00:00,
2013-09-14 15:09:00,66.4,50.7,29.73,South,180,3.0,3.0,57,0.00,,,0.00,Wunderground v.1.15,2013-09-14 19:09:00,
2013-09-14 15:20:00,66.8,50.1,29.73,West,278,0.0,8.0,55,0.00,,,0.00,Wunderground v.1.15,2013-09-14 19:20:00,
2013-09-14 15:29:00,67.2,50.5,29.73,WNW,288,2.0,2.0,55,0.00,,,0.00,Wunderground v.1.15,2013-09-14 19:29:00,
2013-09-14 15:40:00,66.8,49.6,29.73,NW,312,1.0,2.0,54,0.00,,,0.00,Wunderground v.1.15,2013-09-14 19:40:00,
2013-09-14 15:50:00,66.2,49.6,29.73,NNE,32,2.0,2.0,55,0.00,,,0.00,Wunderground v.1.15,2013-09-14 19:50:00,
2013-09-14 15:59:00,66.2,49.6,29.73,NW,320,1.0,1.0,55,0.00,,,0.00,Wunderground v.1.15,2013-09-14 19:59:00,
2013-09-14 16:09:00,66.5,49.3,29.73,WNW,294,1.0,4.0,54,0.00,,,0.00,Wunderground v.1.15,2013-09-14 20:09:00,
2013-09-14 16:20:00,67.2,49.0,29.73,WSW,244,1.0,1.0,52,0.00,,,0.00,Wunderground v.1.15,2013-09-14 20:20:00,
2013-09-14 16:29:00,66.7,49.0,29.73,NE,36,2.0,2.0,53,0.00,,,0.00,Wunderground v.1.15,2013-09-14 20:29:00,
2013-09-14 16:40:00,66.5,47.8,29.73,NW,305,1.0,1.0,51,0.00,,,0.00,Wunderground v.1.15,2013-09-14 20:40:00,
2013-09-14 16:50:00,66.5,52.6,29.73,SSE,149,0.0,0.0,61,0.00,,,0.00,Wunderground v.1.15,2013-09-14 20:50:00,
2013-09-14 16:59:00,65.1,52.2,29.74,East,92,3.0,4.0,63,0.00,,,0.00,Wunderground v.1.15,2013-09-14 20:59:00,
2013-09-14 17:10:00,65.0,53.4,29.74,SSE,167,1.0,1.0,66,0.00,,,0.00,Wunderground v.1.15,2013-09-14 21:10:00,
2013-09-14 17:20:00,65.9,53.8,29.74,SSE,161,0.0,7.0,65,0.00,,,0.00,Wunderground v.1.15,2013-09-14 21:20:00,
2013-09-14 17:29:00,65.9,52.9,29.74,South,170,1.0,1.0,63,0.00,,,0.00,Wunderground v.1.15,2013-09-14 21:29:00,
2013-09-14 17:40:00,65.7,53.6,29.74,SSE,159,1.0,1.0,65,0.00,,,0.00,Wunderground v.1.15,2013-09-14 21:40:00,
2013-09-14 17:50:00,65.2,53.1,29.75,ESE,119,2.0,2.0,65,0.00,,,0.00,Wunderground v.1.15,2013-09-14 21:50:00,
2013-09-14 18:00:00,65.6,54.3,29.75,South,186,1.0,7.0,67,0.00,,,0.00,Wunderground v.1.15,2013-09-14 22:00:00,
2013-09-14 18:10:00,65.2,53.6,29.75,South,174,2.0,8.0,66,0.00,,,0.00,Wunderground v.1.15,2013-09-14 22:10:00,
2013-09-14 18:20:00,64.5,53.3,29.75,SSE,168,5.0,5.0,67,0.00,,,0.00,Wunderground v.1.15,2013-09-14 22:20:00,
2013-09-14 18:29:00,64.2,53.4,29.75,South,184,4.0,4.0,68,0.00,,,0.00,Wunderground v.1.15,2013-09-14 22:29:00,
2013-09-14 18:40:00,63.7,52.9,29.75,South,178,4.0,4.0,68,0.00,,,0.00,Wunderground v.1.15,2013-09-14 22:40:00,
2013-09-14 18:50:00,62.9,53.0,29.75,South,178,1.0,1.0,70,0.00,,,0.00,Wunderground v.1.15,2013-09-14 22:50:00,
2013-09-14 19:00:00,62.0,52.5,29.75,South,177,3.0,3.0,71,0.00,,,0.00,Wunderground v.1.15,2013-09-14 23:00:00,
2013-09-14 19:10:00,61.2,52.5,29.75,South,181,1.0,7.0,73,0.00,,,0.00,Wunderground v.1.15,2013-09-14 23:10:00,
2013-09-14 19:20:00,60.4,52.4,29.75,South,181,1.0,7.0,75,0.00,,,0.00,Wunderground v.1.15,2013-09-14 23:20:00,
2013-09-14 19:30:00,59.6,51.7,29.75,South,181,1.0,1.0,75,0.00,,,0.00,Wunderground v.1.15,2013-09-14 23:30:00,
2013-09-14 19:39:00,58.8,51.6,29.75,South,180,0.0,7.0,77,0.00,,,0.00,Wunderground v.1.15,2013-09-14 23:39:00,
2013-09-14 19:50:00,58.0,51.2,29.76,South,180,0.0,7.0,78,0.00,,,0.00,Wunderground v.1.15,2013-09-14 23:50:00,
2013-09-14 20:00:00,57.2,51.1,29.76,South,180,0.0,0.0,80,0.00,,,0.00,Wunderground v.1.15,2013-09-15 00:00:00,
2013-09-14 20:10:00,56.6,50.8,29.77,South,180,0.0,0.0,81,0.00,,,0.00,Wunderground v.1.15,2013-09-15 00:10:00,
2013-09-14 20:20:00,55.6,50.5,29.78,South,180,0.0,0.0,83,0.00,,,0.00,Wunderground v.1.15,2013-09-15 00:20:00,
2013-09-14 20:30:00,54.8,50.4,29.78,South,180,0.0,0.0,85,0.00,,,0.00,Wunderground v.1.15,2013-09-15 00:30:00,
2013-09-14 20:40:00,54.7,50.3,29.78,South,180,0.0,0.0,85,0.00,,,0.00,Wunderground v.1.15,2013-09-15 00:40:00,
2013-09-14 20:49:00,54.4,50.6,29.78,South,180,0.0,0.0,87,0.00,,,0.00,Wunderground v.1.15,2013-09-15 00:49:00,
2013-09-14 21:00:00,53.7,50.2,29.79,South,180,0.0,0.0,88,0.00,,,0.00,Wunderground v.1.15,2013-09-15 01:00:00,
2013-09-14 21:10:00,53.1,49.6,29.79,South,180,0.0,2.0,88,0.00,,,0.00,Wunderground v.1.15,2013-09-15 01:10:00,
2013-09-14 21:19:00,52.6,49.4,29.79,South,180,0.0,2.0,89,0.00,,,0.00,Wunderground v.1.15,2013-09-15 01:19:00,
2013-09-14 21:30:00,52.4,49.3,29.79,South,180,0.0,2.0,89,0.00,,,0.00,Wunderground v.1.15,2013-09-15 01:30:00,
2013-09-14 21:40:00,52.7,49.8,29.80,South,180,0.0,2.0,90,0.00,,,0.00,Wunderground v.1.15,2013-09-15 01:40:00,
2013-09-14 21:49:00,52.6,49.8,29.80,South,180,0.0,2.0,90,0.00,,,0.00,Wunderground v.1.15,2013-09-15 01:49:00,
2013-09-14 22:00:00,52.3,49.5,29.80,South,180,0.0,2.0,90,0.00,,,0.00,Wunderground v.1.15,2013-09-15 02:00:00,
2013-09-14 22:10:00,52.0,49.5,29.80,South,180,0.0,2.0,91,0.00,,,0.00,Wunderground v.1.15,2013-09-15 02:10:00,
2013-09-14 22:20:00,51.6,48.8,29.80,South,180,0.0,2.0,90,0.00,,,0.00,Wunderground v.1.15,2013-09-15 02:20:00,
2013-09-14 22:29:00,51.3,48.8,29.80,South,180,0.0,2.0,91,0.00,,,0.00,Wunderground v.1.15,2013-09-15 02:29:00,
2013-09-14 22:40:00,51.4,49.2,29.80,South,180,0.0,2.0,92,0.00,,,0.00,Wunderground v.1.15,2013-09-15 02:40:00,
2013-09-14 22:50:00,52.4,49.8,29.81,South,180,0.0,2.0,91,0.00,,,0.00,Wunderground v.1.15,2013-09-15 02:50:00,
2013-09-14 23:00:00,52.9,49.7,29.81,South,180,0.0,2.0,89,0.00,,,0.00,Wunderground v.1.15,2013-09-15 03:00:00,
2013-09-14 23:09:00,52.3,48.9,29.81,South,180,0.0,2.0,88,0.00,,,0.00,Wunderground v.1.15,2013-09-15 03:09:00,
2013-09-14 23:20:00,51.5,48.7,29.82,South,180,0.0,2.0,90,0.00,,,0.00,Wunderground v.1.15,2013-09-15 03:20:00,
2013-09-14 23:29:00,51.2,48.7,29.82,South,180,0.0,0.0,91,0.00,,,0.00,Wunderground v.1.15,2013-09-15 03:29:00,
2013-09-14 23:40:00,51.5,49.3,29.82,South,180,0.0,0.0,92,0.00,,,0.00,Wunderground v.1.15,2013-09-15 03:40:00,
2013-09-14 23:49:00,51.6,49.1,29.82,South,180,0.0,0.0,91,0.00,,,0.00,Wunderground v.1.15,2013-09-15 03:49:00,